Mt New Conquest — V7GG4 — position and weather

sailwx.info

Track history (hours):
 
Tides and Currents Weather Stations Pressure Air Temp Water Temp Dewpoint Dewpoint Depression Visibility Wind Speed Wind Dir Waves Ship Positions

Mt New Conquest

Last reported at 2015-Feb-05 14:23 UTC. Time now 2015-Mar-05 12:03 UTC.
Position N 30°26' W 122°47'.
Warning: this ship's position is 27 days out of date.

Length 228 m; draft 8.4 m.

Type: Ship (hazmat cat A). MMSI: 538002089.

Date/timePositionNaut miles runAvg speedWind from/ knotsBaromVisibWave heightAir tempDewpointWater temp
2015-Feb-05 14:23N 30°26' W 122°47'1214.5
2015-Feb-05 13:33N 30°28' W 122°33'1514.3
2015-Feb-05 12:32N 30°29' W 122°16'1414.5
2015-Feb-05 11:33N 30°30' W 121°60'2914.3
2015-Feb-05 09:33N 30°33' W 121°27'1914.4
2015-Feb-05 08:15N 30°35' W 121°05'1214.3
2015-Feb-05 07:26N 30°36' W 120°51'1414.2
2015-Feb-05 06:28N 30°40' W 120°36'1314.1
2015-Feb-05 05:33N 30°43' W 120°21'1414.1
2015-Feb-05 04:33N 30°46' W 120°05'1614.2
2015-Feb-05 03:28N 30°49' W 119°48'1314.3
2015-Feb-05 02:33N 30°52' W 119°33'1914.3
2015-Feb-05 01:13N 30°57' W 119°11'914.0
2015-Feb-05 00:33N 30°59' W 119°01'1414.3
2015-Feb-04 23:33N 31°03' W 118°45'3013.9
2015-Feb-04 21:24N 31°22' W 118°18'1214.5
2015-Feb-04 20:33N 31°32' W 118°11'1414.3
2015-Feb-04 19:33N 31°46' W 118°05'1514.7
2015-Feb-04 18:33N 31°60' W 117°60'1514.7
2015-Feb-04 17:33N 32°14' W 117°55'1514.7
2015-Feb-04 16:33N 32°28' W 117°50'1312.7
2015-Feb-04 15:33N 32°40' W 117°53'1212.0
2015-Feb-04 14:34N 32°52' W 117°58'1212.0
2015-Feb-04 13:33N 33°04' W 117°59'1211.6
2015-Feb-04 12:33N 33°14' W 118°04'1111.4
2015-Feb-04 11:33N 33°25' W 118°09'1111.2
2015-Feb-04 10:34N 33°36' W 118°13'1110.6
2015-Feb-04 09:33N 33°38' W 118°26'1111.3
2015-Feb-04 08:33N 33°44' W 118°37'1111.4
2015-Feb-04 07:33N 33°50' W 118°49'1211.5
2015-Feb-04 06:33N 33°55' W 119°01'1312.7
2015-Feb-04 05:33N 34°02' W 119°15'1413.5
2015-Feb-04 04:31N 34°06' W 119°31'1313.9
2015-Feb-04 03:33N 34°09' W 119°46'1514.0
2015-Feb-04 02:30N 34°13' W 120°03'2713.9
2015-Feb-04 00:33N 34°20' W 120°35'1413.8
2015-Feb-03 23:33N 34°24' W 120°51'1313.4
2015-Feb-03 22:33N 34°35' W 120°60'1413.8
2015-Feb-03 21:33N 34°47' W 121°08'1413.7
2015-Feb-03 20:33N 34°59' W 121°16'1413.6
2015-Feb-03 19:33N 35°11' W 121°25'1313.4
2015-Feb-03 18:33N 35°23' W 121°33'1313.3
2015-Feb-03 17:33N 35°34' W 121°41'1313.3
2015-Feb-03 16:33N 35°46' W 121°49'1313.4
2015-Feb-03 15:33N 35°57' W 121°57'1313.4
2015-Feb-03 14:34N 36°09' W 122°06'1313.5
2015-Feb-03 13:33N 36°20' W 122°14'1313.3
2015-Feb-03 12:33N 36°32' W 122°22'1413.6
2015-Feb-03 11:33N 36°44' W 122°30'1413.6
2015-Feb-03 10:34N 36°57' W 122°35'1414.0
2015-Feb-03 09:34N 37°10' W 122°40'1413.6
2015-Feb-03 08:34N 37°24' W 122°44'1413.6
2015-Feb-03 07:33N 37°37' W 122°44'1010.4
2015-Feb-03 06:33N 37°46' W 122°37'9 9.1
2015-Feb-03 05:33N 37°50' W 122°26'6 6.4
2015-Feb-03 04:33N 37°45' W 122°21'0 0.0
2015-Feb-03 03:33N 37°45' W 122°21'0 0.3
2015-Feb-03 02:33N 37°46' W 122°21'0 0.1
2015-Feb-03 01:33N 37°46' W 122°21'0 0.0
2015-Feb-03 00:33N 37°46' W 122°21'0 0.0
2015-Feb-02 23:33N 37°46' W 122°21'0 0.0
2015-Feb-02 22:33N 37°46' W 122°21'0 0.0
2015-Feb-02 21:33N 37°46' W 122°21'1 1.1
2015-Feb-02 20:33N 37°47' W 122°21'1211.8
2015-Feb-02 19:33N 37°58' W 122°27'1410.0
2015-Feb-02 18:08N 38°02' W 122°09'1 0.0
2015-Feb-01 18:33N 38°02' W 122°08'3 3.2
2015-Feb-01 17:33N 38°03' W 122°12'9 8.8
2015-Feb-01 16:33N 38°02' W 122°23'9 9.3
2015-Feb-01 15:34N 37°53' W 122°25'7 7.2
2015-Feb-01 14:34N 37°48' W 122°32'9 9.2
2015-Feb-01 13:34N 37°41' W 122°40'1313.1
2015-Feb-01 12:33N 37°28' W 122°40'1313.0
2015-Feb-01 11:33N 37°15' W 122°38'1313.3
2015-Feb-01 10:33N 37°03' W 122°30'1313.0
2015-Feb-01 09:32N 36°51' W 122°23'1313.4
2015-Feb-01 08:34N 36°40' W 122°15'1313.2
2015-Feb-01 07:33N 36°28' W 122°07'1313.0
2015-Feb-01 06:33N 36°16' W 122°00'1313.0
2015-Feb-01 05:33N 36°05' W 121°53'1313.4
2015-Feb-01 04:33N 35°53' W 121°46'1212.1
2015-Feb-01 03:33N 35°41' W 121°41'9 9.3
2015-Feb-01 02:33N 35°34' W 121°34'1313.3
2015-Feb-01 01:33N 35°22' W 121°26'1313.1
2015-Feb-01 00:33N 35°10' W 121°19'1313.0
2015-Jan-31 23:33N 34°59' W 121°12'1312.8
2015-Jan-31 22:33N 34°47' W 121°05'1312.9
2015-Jan-31 21:33N 34°36' W 120°58'2512.0
2015-Jan-31 19:30N 34°22' W 120°33'3013.2
2015-Jan-31 17:16N 34°14' W 119°59'2313.3
2015-Jan-31 15:33N 34°08' W 119°32'7010.0
2015-Jan-31 08:33N 33°44' W 118°12'2 2.3
2015-Jan-31 07:32N 33°46' W 118°13'0 0.0
2015-Jan-31 06:32N 33°46' W 118°13'0 0.0
2015-Jan-31 05:32N 33°46' W 118°13'0 0.0
2015-Jan-31 04:32N 33°46' W 118°13'0 0.0
2015-Jan-31 03:32N 33°46' W 118°13'0 0.0
2015-Jan-31 02:32N 33°46' W 118°13'0 0.0
2015-Jan-31 01:32N 33°46' W 118°13'0 0.0
2015-Jan-31 00:32N 33°46' W 118°13'0 0.0
2015-Jan-30 23:32N 33°46' W 118°13'0 0.0
2015-Jan-30 22:32N 33°46' W 118°13'0 0.0
2015-Jan-30 21:32N 33°46' W 118°13'0 0.0
2015-Jan-30 20:32N 33°46' W 118°13'0 0.0
2015-Jan-30 19:32N 33°46' W 118°13'0 0.0
2015-Jan-30 18:32N 33°46' W 118°13'0 0.0
2015-Jan-30 17:32N 33°46' W 118°13'0 0.0
2015-Jan-30 16:32N 33°46' W 118°13'0 0.0
2015-Jan-30 15:32N 33°46' W 118°13'0 0.0
2015-Jan-30 14:32N 33°46' W 118°13'0 0.0
2015-Jan-30 13:29N 33°46' W 118°13'0 0.0
2015-Jan-30 12:32N 33°46' W 118°13'0 0.0
2015-Jan-30 11:32N 33°46' W 118°13'0 0.0
2015-Jan-30 10:32N 33°46' W 118°13'0 0.0
2015-Jan-30 09:32N 33°46' W 118°13'0 0.0
2015-Jan-30 08:32N 33°46' W 118°13'0 0.0
2015-Jan-30 07:32N 33°46' W 118°13'0 0.0
2015-Jan-30 06:32N 33°46' W 118°13'0 0.0
2015-Jan-30 05:32N 33°46' W 118°13'0 0.0
2015-Jan-30 04:32N 33°46' W 118°13'0 0.0
2015-Jan-30 03:32N 33°46' W 118°13'0 0.0
2015-Jan-30 02:33N 33°46' W 118°13'2 2.1
2015-Jan-30 01:33N 33°44' W 118°13'5 5.0
2015-Jan-30 00:33N 33°42' W 118°07'0 0.0
2015-Jan-29 23:33N 33°42' W 118°07'0 0.0
2015-Jan-29 22:33N 33°42' W 118°07'0 0.0
2015-Jan-29 21:33N 33°42' W 118°07'0 0.1
2015-Jan-29 20:33N 33°42' W 118°07'0 0.0
2015-Jan-29 19:27N 33°42' W 118°07'0 0.0
2015-Jan-29 18:33N 33°42' W 118°07'0 0.0
2015-Jan-29 17:33N 33°42' W 118°07'0 0.0
2015-Jan-29 16:33N 33°42' W 118°07'0 0.0
2015-Jan-29 13:30N 33°42' W 118°07'0 0.1
2015-Jan-29 12:33N 33°42' W 118°07'0 0.1
2015-Jan-29 11:27N 33°42' W 118°07'0 0.1
2015-Jan-29 10:33N 33°42' W 118°07'0 0.1
2015-Jan-29 09:33N 33°42' W 118°07'0 0.0
2015-Jan-29 08:33N 33°42' W 118°07'0 0.1
2015-Jan-29 07:33N 33°42' W 118°07'0 0.1
2015-Jan-29 06:33N 33°42' W 118°07'0 0.0
2015-Jan-29 05:33N 33°42' W 118°07'0 0.0
2015-Jan-29 04:30N 33°42' W 118°07'0 0.0
2015-Jan-29 03:30N 33°42' W 118°07'0 0.0
2015-Jan-29 02:33N 33°42' W 118°07'0 0.0
2015-Jan-29 01:30N 33°42' W 118°07'0 0.0
2015-Jan-29 00:33N 33°42' W 118°07'0 0.0
2015-Jan-28 23:30N 33°42' W 118°07'0 0.0
2015-Jan-28 22:30N 33°42' W 118°07'0 0.0
2015-Jan-28 21:30N 33°42' W 118°07'0 0.0
2015-Jan-28 20:33N 33°42' W 118°07'0 0.1
2015-Jan-28 19:30N 33°42' W 118°07'0 0.2
2015-Jan-28 18:14N 33°42' W 118°08'3 3.9
2015-Jan-28 17:33N 33°40' W 118°10'8 7.7
2015-Jan-28 16:33N 33°32' W 118°08'1111.3
2015-Jan-28 15:33N 33°21' W 118°04'1111.0
2015-Jan-28 14:33N 33°10' W 118°03'1010.3
2015-Jan-28 13:33N 33°00' W 118°04'9 8.6
2015-Jan-28 12:33N 32°51' W 118°04'1111.3
2015-Jan-28 11:33N 32°40' W 118°04'1111.1
2015-Jan-28 10:33N 32°29' W 118°04'1111.2
2015-Jan-28 09:33N 32°18' W 118°04'1211.5
2015-Jan-28 08:33N 32°06' W 118°05'1111.5
2015-Jan-28 07:33N 31°55' W 118°05'1111.4
2015-Jan-28 06:33N 31°43' W 118°05'1111.4
2015-Jan-28 05:33N 31°32' W 118°06'1111.2
2015-Jan-28 04:33N 31°21' W 118°06'1110.9
2015-Jan-28 03:33N 31°10' W 118°06'2 2.2
2015-Jan-28 02:25N 31°10' W 118°09'4 2.2
2015-Jan-28 00:32N 31°11' W 118°13'2 2.1
2015-Jan-27 23:33N 31°13' W 118°15'2 1.5
2015-Jan-27 22:32N 31°14' W 118°17'1 1.2
2015-Jan-27 21:33N 31°14' W 118°18'1 1.2
2015-Jan-27 20:31N 31°15' W 118°19'2 1.4
2015-Jan-27 19:19N 31°16' W 118°20'1 1.7
2015-Jan-27 18:33N 31°17' W 118°22'2 1.8
2015-Jan-27 17:33N 31°18' W 118°23'2 1.8
2015-Jan-27 16:33N 31°19' W 118°25'2 1.8
2015-Jan-27 15:16N 31°20' W 118°27'1 1.6
2015-Jan-27 14:30N 31°21' W 118°28'1 1.3
2015-Jan-27 13:33N 31°22' W 118°29'1 1.2
2015-Jan-27 12:33N 31°23' W 118°30'1 1.2
2015-Jan-27 11:33N 31°24' W 118°31'1 1.2
2015-Jan-27 10:33N 31°24' W 118°32'1 1.2
2015-Jan-27 09:18N 31°25' W 118°34'1 1.2
2015-Jan-27 08:22N 31°26' W 118°35'1 1.5
2015-Jan-27 07:28N 31°27' W 118°36'27 2.3
2015-Jan-26 19:33N 31°39' W 119°04'14 9.7
2015-Jan-26 18:06N 31°53' W 119°02'712.6
2015-Jan-26 17:33N 31°60' W 119°01'1312.7
2015-Jan-26 16:33N 32°12' W 119°00'1211.7
2015-Jan-26 15:33N 32°19' W 118°49'1312.3
2015-Jan-26 14:32N 32°24' W 118°35'  
Track history (hours):
 
Tides and Currents Weather Stations Pressure Air Temp Water Temp Dewpoint Dewpoint Depression Visibility Wind Speed Wind Dir Waves Ship Positions

Mt New Conquest

Last reported at 2015-Feb-05 14:23 UTC. Time now 2015-Mar-05 12:03 UTC.
Position N 30°26' W 122°47'.
Warning: this ship's position is 27 days out of date.

Length 228 m; draft 8.4 m.

Type: Ship (hazmat cat A). MMSI: 538002089.

Date/timePositionNaut miles runAvg speedWind from/ knotsBaromVisibWave heightAir tempDewpointWater temp
2015-Feb-05 14:23N 30°26' W 122°47'1214.5
2015-Feb-05 13:33N 30°28' W 122°33'1514.3
2015-Feb-05 12:32N 30°29' W 122°16'1414.5
2015-Feb-05 11:33N 30°30' W 121°60'2914.3
2015-Feb-05 09:33N 30°33' W 121°27'1914.4
2015-Feb-05 08:15N 30°35' W 121°05'1214.3
2015-Feb-05 07:26N 30°36' W 120°51'1414.2
2015-Feb-05 06:28N 30°40' W 120°36'1314.1
2015-Feb-05 05:33N 30°43' W 120°21'1414.1
2015-Feb-05 04:33N 30°46' W 120°05'1614.2
2015-Feb-05 03:28N 30°49' W 119°48'1314.3
2015-Feb-05 02:33N 30°52' W 119°33'1914.3
2015-Feb-05 01:13N 30°57' W 119°11'914.0
2015-Feb-05 00:33N 30°59' W 119°01'1414.3
2015-Feb-04 23:33N 31°03' W 118°45'3013.9
2015-Feb-04 21:24N 31°22' W 118°18'1214.5
2015-Feb-04 20:33N 31°32' W 118°11'1414.3
2015-Feb-04 19:33N 31°46' W 118°05'1514.7
2015-Feb-04 18:33N 31°60' W 117°60'1514.7
2015-Feb-04 17:33N 32°14' W 117°55'1514.7
2015-Feb-04 16:33N 32°28' W 117°50'1312.7
2015-Feb-04 15:33N 32°40' W 117°53'1212.0
2015-Feb-04 14:34N 32°52' W 117°58'1212.0
2015-Feb-04 13:33N 33°04' W 117°59'1211.6
2015-Feb-04 12:33N 33°14' W 118°04'1111.4
2015-Feb-04 11:33N 33°25' W 118°09'1111.2
2015-Feb-04 10:34N 33°36' W 118°13'1110.6
2015-Feb-04 09:33N 33°38' W 118°26'1111.3
2015-Feb-04 08:33N 33°44' W 118°37'1111.4
2015-Feb-04 07:33N 33°50' W 118°49'1211.5
2015-Feb-04 06:33N 33°55' W 119°01'1312.7
2015-Feb-04 05:33N 34°02' W 119°15'1413.5
2015-Feb-04 04:31N 34°06' W 119°31'1313.9
2015-Feb-04 03:33N 34°09' W 119°46'1514.0
2015-Feb-04 02:30N 34°13' W 120°03'2713.9
2015-Feb-04 00:33N 34°20' W 120°35'1413.8
2015-Feb-03 23:33N 34°24' W 120°51'1313.4
2015-Feb-03 22:33N 34°35' W 120°60'1413.8
2015-Feb-03 21:33N 34°47' W 121°08'1413.7
2015-Feb-03 20:33N 34°59' W 121°16'1413.6
2015-Feb-03 19:33N 35°11' W 121°25'1313.4
2015-Feb-03 18:33N 35°23' W 121°33'1313.3
2015-Feb-03 17:33N 35°34' W 121°41'1313.3
2015-Feb-03 16:33N 35°46' W 121°49'1313.4
2015-Feb-03 15:33N 35°57' W 121°57'1313.4
2015-Feb-03 14:34N 36°09' W 122°06'1313.5
2015-Feb-03 13:33N 36°20' W 122°14'1313.3
2015-Feb-03 12:33N 36°32' W 122°22'1413.6
2015-Feb-03 11:33N 36°44' W 122°30'1413.6
2015-Feb-03 10:34N 36°57' W 122°35'1414.0
2015-Feb-03 09:34N 37°10' W 122°40'1413.6
2015-Feb-03 08:34N 37°24' W 122°44'1413.6
2015-Feb-03 07:33N 37°37' W 122°44'1010.4
2015-Feb-03 06:33N 37°46' W 122°37'9 9.1
2015-Feb-03 05:33N 37°50' W 122°26'6 6.4
2015-Feb-03 04:33N 37°45' W 122°21'0 0.0
2015-Feb-03 03:33N 37°45' W 122°21'0 0.3
2015-Feb-03 02:33N 37°46' W 122°21'0 0.1
2015-Feb-03 01:33N 37°46' W 122°21'0 0.0
2015-Feb-03 00:33N 37°46' W 122°21'0 0.0
2015-Feb-02 23:33N 37°46' W 122°21'0 0.0
2015-Feb-02 22:33N 37°46' W 122°21'0 0.0
2015-Feb-02 21:33N 37°46' W 122°21'1 1.1
2015-Feb-02 20:33N 37°47' W 122°21'1211.8
2015-Feb-02 19:33N 37°58' W 122°27'1410.0
2015-Feb-02 18:08N 38°02' W 122°09'1 0.0
2015-Feb-01 18:33N 38°02' W 122°08'3 3.2
2015-Feb-01 17:33N 38°03' W 122°12'9 8.8
2015-Feb-01 16:33N 38°02' W 122°23'9 9.3
2015-Feb-01 15:34N 37°53' W 122°25'7 7.2
2015-Feb-01 14:34N 37°48' W 122°32'9 9.2
2015-Feb-01 13:34N 37°41' W 122°40'1313.1
2015-Feb-01 12:33N 37°28' W 122°40'1313.0
2015-Feb-01 11:33N 37°15' W 122°38'1313.3
2015-Feb-01 10:33N 37°03' W 122°30'1313.0
2015-Feb-01 09:32N 36°51' W 122°23'1313.4
2015-Feb-01 08:34N 36°40' W 122°15'1313.2
2015-Feb-01 07:33N 36°28' W 122°07'1313.0
2015-Feb-01 06:33N 36°16' W 122°00'1313.0
2015-Feb-01 05:33N 36°05' W 121°53'1313.4
2015-Feb-01 04:33N 35°53' W 121°46'1212.1
2015-Feb-01 03:33N 35°41' W 121°41'9 9.3
2015-Feb-01 02:33N 35°34' W 121°34'1313.3
2015-Feb-01 01:33N 35°22' W 121°26'1313.1
2015-Feb-01 00:33N 35°10' W 121°19'1313.0
2015-Jan-31 23:33N 34°59' W 121°12'1312.8
2015-Jan-31 22:33N 34°47' W 121°05'1312.9
2015-Jan-31 21:33N 34°36' W 120°58'2512.0
2015-Jan-31 19:30N 34°22' W 120°33'3013.2
2015-Jan-31 17:16N 34°14' W 119°59'2313.3
2015-Jan-31 15:33N 34°08' W 119°32'7010.0
2015-Jan-31 08:33N 33°44' W 118°12'2 2.3
2015-Jan-31 07:32N 33°46' W 118°13'0 0.0
2015-Jan-31 06:32N 33°46' W 118°13'0 0.0
2015-Jan-31 05:32N 33°46' W 118°13'0 0.0
2015-Jan-31 04:32N 33°46' W 118°13'0 0.0
2015-Jan-31 03:32N 33°46' W 118°13'0 0.0
2015-Jan-31 02:32N 33°46' W 118°13'0 0.0
2015-Jan-31 01:32N 33°46' W 118°13'0 0.0
2015-Jan-31 00:32N 33°46' W 118°13'0 0.0
2015-Jan-30 23:32N 33°46' W 118°13'0 0.0
2015-Jan-30 22:32N 33°46' W 118°13'0 0.0
2015-Jan-30 21:32N 33°46' W 118°13'0 0.0
2015-Jan-30 20:32N 33°46' W 118°13'0 0.0
2015-Jan-30 19:32N 33°46' W 118°13'0 0.0
2015-Jan-30 18:32N 33°46' W 118°13'0 0.0
2015-Jan-30 17:32N 33°46' W 118°13'0 0.0
2015-Jan-30 16:32N 33°46' W 118°13'0 0.0
2015-Jan-30 15:32N 33°46' W 118°13'0 0.0
2015-Jan-30 14:32N 33°46' W 118°13'0 0.0
2015-Jan-30 13:29N 33°46' W 118°13'0 0.0
2015-Jan-30 12:32N 33°46' W 118°13'0 0.0
2015-Jan-30 11:32N 33°46' W 118°13'0 0.0
2015-Jan-30 10:32N 33°46' W 118°13'0 0.0
2015-Jan-30 09:32N 33°46' W 118°13'0 0.0
2015-Jan-30 08:32N 33°46' W 118°13'0 0.0
2015-Jan-30 07:32N 33°46' W 118°13'0 0.0
2015-Jan-30 06:32N 33°46' W 118°13'0 0.0
2015-Jan-30 05:32N 33°46' W 118°13'0 0.0
2015-Jan-30 04:32N 33°46' W 118°13'0 0.0
2015-Jan-30 03:32N 33°46' W 118°13'0 0.0
2015-Jan-30 02:33N 33°46' W 118°13'2 2.1
2015-Jan-30 01:33N 33°44' W 118°13'5 5.0
2015-Jan-30 00:33N 33°42' W 118°07'0 0.0
2015-Jan-29 23:33N 33°42' W 118°07'0 0.0
2015-Jan-29 22:33N 33°42' W 118°07'0 0.0
2015-Jan-29 21:33N 33°42' W 118°07'0 0.1
2015-Jan-29 20:33N 33°42' W 118°07'0 0.0
2015-Jan-29 19:27N 33°42' W 118°07'0 0.0
2015-Jan-29 18:33N 33°42' W 118°07'0 0.0
2015-Jan-29 17:33N 33°42' W 118°07'0 0.0
2015-Jan-29 16:33N 33°42' W 118°07'0 0.0
2015-Jan-29 13:30N 33°42' W 118°07'0 0.1
2015-Jan-29 12:33N 33°42' W 118°07'0 0.1
2015-Jan-29 11:27N 33°42' W 118°07'0 0.1
2015-Jan-29 10:33N 33°42' W 118°07'0 0.1
2015-Jan-29 09:33N 33°42' W 118°07'0 0.0
2015-Jan-29 08:33N 33°42' W 118°07'0 0.1
2015-Jan-29 07:33N 33°42' W 118°07'0 0.1
2015-Jan-29 06:33N 33°42' W 118°07'0 0.0
2015-Jan-29 05:33N 33°42' W 118°07'0 0.0
2015-Jan-29 04:30N 33°42' W 118°07'0 0.0
2015-Jan-29 03:30N 33°42' W 118°07'0 0.0
2015-Jan-29 02:33N 33°42' W 118°07'0 0.0
2015-Jan-29 01:30N 33°42' W 118°07'0 0.0
2015-Jan-29 00:33N 33°42' W 118°07'0 0.0
2015-Jan-28 23:30N 33°42' W 118°07'0 0.0
2015-Jan-28 22:30N 33°42' W 118°07'0 0.0
2015-Jan-28 21:30N 33°42' W 118°07'0 0.0
2015-Jan-28 20:33N 33°42' W 118°07'0 0.1
2015-Jan-28 19:30N 33°42' W 118°07'0 0.2
2015-Jan-28 18:14N 33°42' W 118°08'3 3.9
2015-Jan-28 17:33N 33°40' W 118°10'8 7.7
2015-Jan-28 16:33N 33°32' W 118°08'1111.3
2015-Jan-28 15:33N 33°21' W 118°04'1111.0
2015-Jan-28 14:33N 33°10' W 118°03'1010.3
2015-Jan-28 13:33N 33°00' W 118°04'9 8.6
2015-Jan-28 12:33N 32°51' W 118°04'1111.3
2015-Jan-28 11:33N 32°40' W 118°04'1111.1
2015-Jan-28 10:33N 32°29' W 118°04'1111.2
2015-Jan-28 09:33N 32°18' W 118°04'1211.5
2015-Jan-28 08:33N 32°06' W 118°05'1111.5
2015-Jan-28 07:33N 31°55' W 118°05'1111.4
2015-Jan-28 06:33N 31°43' W 118°05'1111.4
2015-Jan-28 05:33N 31°32' W 118°06'1111.2
2015-Jan-28 04:33N 31°21' W 118°06'1110.9
2015-Jan-28 03:33N 31°10' W 118°06'2 2.2
2015-Jan-28 02:25N 31°10' W 118°09'4 2.2
2015-Jan-28 00:32N 31°11' W 118°13'2 2.1
2015-Jan-27 23:33N 31°13' W 118°15'2 1.5
2015-Jan-27 22:32N 31°14' W 118°17'1 1.2
2015-Jan-27 21:33N 31°14' W 118°18'1 1.2
2015-Jan-27 20:31N 31°15' W 118°19'2 1.4
2015-Jan-27 19:19N 31°16' W 118°20'1 1.7
2015-Jan-27 18:33N 31°17' W 118°22'2 1.8
2015-Jan-27 17:33N 31°18' W 118°23'2 1.8
2015-Jan-27 16:33N 31°19' W 118°25'2 1.8
2015-Jan-27 15:16N 31°20' W 118°27'1 1.6
2015-Jan-27 14:30N 31°21' W 118°28'1 1.3
2015-Jan-27 13:33N 31°22' W 118°29'1 1.2
2015-Jan-27 12:33N 31°23' W 118°30'1 1.2
2015-Jan-27 11:33N 31°24' W 118°31'1 1.2
2015-Jan-27 10:33N 31°24' W 118°32'1 1.2
2015-Jan-27 09:18N 31°25' W 118°34'1 1.2
2015-Jan-27 08:22N 31°26' W 118°35'1 1.5
2015-Jan-27 07:28N 31°27' W 118°36'27 2.3
2015-Jan-26 19:33N 31°39' W 119°04'14 9.7
2015-Jan-26 18:06N 31°53' W 119°02'712.6
2015-Jan-26 17:33N 31°60' W 119°01'1312.7
2015-Jan-26 16:33N 32°12' W 119°00'1211.7
2015-Jan-26 15:33N 32°19' W 118°49'1312.3
2015-Jan-26 14:32N 32°24' W 118°35'  

Dump ship's entire track history